createdAt,value
2018-11-02T00:00:05.241Z,21.02
2018-11-02T00:00:36.833Z,21.01
2018-11-02T00:01:08.424Z,21.00
2018-11-02T00:01:40.012Z,20.98
2018-11-02T00:02:11.604Z,20.98
2018-11-02T00:02:43.214Z,20.95
2018-11-02T00:03:14.818Z,20.94
2018-11-02T00:03:46.443Z,20.92
2018-11-02T00:04:18.038Z,20.90
2018-11-02T00:04:49.629Z,20.88
2018-11-02T00:05:21.210Z,20.88
2018-11-02T00:05:52.818Z,20.88
2018-11-02T00:06:24.457Z,20.86
2018-11-02T00:06:56.030Z,20.84
2018-11-02T00:07:27.632Z,20.82
2018-11-02T00:07:59.252Z,20.82
2018-11-02T00:08:30.918Z,20.81
2018-11-02T00:09:02.502Z,20.79
2018-11-02T00:09:34.096Z,20.78
2018-11-02T00:10:05.675Z,20.77
2018-11-02T00:10:37.302Z,20.76
2018-11-02T00:11:08.885Z,20.75
2018-11-02T00:11:40.466Z,20.74
2018-11-02T00:12:12.084Z,20.74
2018-11-02T00:12:43.716Z,20.72
2018-11-02T00:13:15.336Z,20.73
2018-11-02T00:13:46.971Z,20.46
2018-11-02T00:14:18.581Z,20.72
2018-11-02T00:14:50.202Z,20.72
2018-11-02T00:15:21.814Z,20.70
2018-11-02T00:15:53.401Z,20.69
2018-11-02T00:16:24.986Z,20.69
2018-11-02T00:16:56.585Z,20.67
2018-11-02T00:17:28.179Z,20.66
2018-11-02T00:17:59.837Z,20.65
2018-11-02T00:18:31.450Z,20.64
2018-11-02T00:19:03.056Z,20.62
2018-11-02T00:19:34.671Z,20.63
2018-11-02T00:20:06.277Z,20.62
2018-11-02T00:20:37.865Z,20.62
2018-11-02T00:21:09.468Z,20.62
2018-11-02T00:21:41.076Z,20.61
2018-11-02T00:22:12.701Z,20.60
2018-11-02T00:22:44.285Z,20.60
2018-11-02T00:23:15.899Z,20.61
2018-11-02T00:23:47.498Z,20.59
2018-11-02T00:24:19.084Z,20.57
2018-11-02T00:24:50.701Z,20.55
2018-11-02T00:25:22.287Z,20.52
2018-11-02T00:25:53.909Z,20.54
2018-11-02T00:26:25.504Z,20.55
2018-11-02T00:26:57.082Z,20.56
2018-11-02T00:27:28.662Z,20.55
2018-11-02T00:28:00.279Z,20.54
2018-11-02T00:28:31.880Z,20.55
2018-11-02T00:29:03.476Z,20.53
2018-11-02T00:29:35.102Z,20.52
2018-11-02T00:30:06.694Z,20.52
2018-11-02T00:30:38.404Z,20.52
2018-11-02T00:31:09.998Z,20.51
2018-11-02T00:31:41.626Z,20.51
2018-11-02T00:32:13.241Z,20.50
2018-11-02T00:32:44.830Z,20.49
2018-11-02T00:33:16.819Z,20.49
2018-11-02T00:33:48.416Z,20.49
2018-11-02T00:34:20.022Z,20.49
2018-11-02T00:34:51.615Z,20.49
2018-11-02T00:35:23.242Z,20.28
2018-11-02T00:35:54.850Z,20.48
2018-11-02T00:36:26.440Z,20.48
2018-11-02T00:36:58.033Z,20.47
2018-11-02T00:37:29.618Z,20.46
2018-11-02T00:38:01.255Z,20.46
2018-11-02T00:38:32.856Z,20.45
2018-11-02T00:39:04.455Z,20.44
2018-11-02T00:39:36.054Z,20.44
2018-11-02T00:40:07.656Z,20.43
2018-11-02T00:40:39.270Z,20.42
2018-11-02T00:41:10.851Z,20.41
2018-11-02T00:41:42.452Z,20.40
2018-11-02T00:42:14.070Z,20.40
2018-11-02T00:42:45.663Z,20.40
2018-11-02T00:43:17.249Z,20.38
2018-11-02T00:43:48.891Z,20.38
2018-11-02T00:44:20.448Z,20.37
2018-11-02T00:44:52.039Z,20.37
2018-11-02T00:45:23.626Z,20.36
2018-11-02T00:45:55.215Z,20.36
2018-11-02T00:46:26.812Z,20.35
2018-11-02T00:46:58.442Z,20.34
2018-11-02T00:47:30.042Z,20.33
2018-11-02T00:48:01.630Z,20.32
2018-11-02T00:48:33.251Z,20.32
2018-11-02T00:49:04.840Z,20.31
2018-11-02T00:49:36.432Z,20.29
2018-11-02T00:50:08.024Z,20.29
2018-11-02T00:50:39.625Z,20.29
2018-11-02T00:51:11.224Z,20.29
2018-11-02T00:51:42.855Z,20.32
2018-11-02T00:52:14.448Z,20.33
2018-11-02T00:52:46.057Z,20.35
2018-11-02T00:53:17.699Z,20.39
2018-11-02T00:53:49.330Z,20.39
2018-11-02T00:54:20.919Z,20.39
2018-11-02T00:54:52.565Z,20.36
2018-11-02T00:55:24.165Z,20.36
2018-11-02T00:55:55.771Z,20.33
2018-11-02T00:56:27.355Z,20.32
2018-11-02T00:56:58.968Z,20.32
2018-11-02T00:57:30.554Z,20.31
2018-11-02T00:58:02.154Z,20.29
2018-11-02T00:58:33.772Z,20.28
2018-11-02T00:59:05.359Z,20.26
2018-11-02T00:59:36.973Z,20.27
2018-11-02T01:00:08.582Z,20.16
2018-11-02T01:00:40.182Z,20.24
2018-11-02T01:01:11.785Z,20.24
2018-11-02T01:01:43.376Z,20.25
2018-11-02T01:02:14.980Z,20.26
2018-11-02T01:02:46.600Z,20.25
2018-11-02T01:03:18.196Z,20.26
2018-11-02T01:03:49.827Z,20.24
2018-11-02T01:04:21.419Z,20.25
2018-11-02T01:04:53.016Z,20.22
2018-11-02T01:05:24.625Z,20.25
2018-11-02T01:05:56.230Z,20.25
2018-11-02T01:06:27.838Z,20.26
2018-11-02T01:06:59.441Z,20.27
2018-11-02T01:07:31.031Z,20.24
2018-11-02T01:08:02.659Z,20.28
2018-11-02T01:08:34.294Z,20.28
2018-11-02T01:09:05.889Z,20.28
2018-11-02T01:09:37.485Z,20.28
2018-11-02T01:10:09.091Z,20.28
2018-11-02T01:10:40.692Z,20.28
2018-11-02T01:11:12.301Z,20.27
2018-11-02T01:11:43.929Z,20.11
2018-11-02T01:12:15.533Z,20.27
2018-11-02T01:12:47.127Z,20.26
2018-11-02T01:13:18.703Z,20.25
2018-11-02T01:13:50.342Z,20.25
2018-11-02T01:14:21.935Z,20.25
2018-11-02T01:14:53.524Z,20.25
2018-11-02T01:15:25.110Z,20.24
2018-11-02T01:15:56.683Z,20.23
2018-11-02T01:16:28.288Z,20.23
2018-11-02T01:16:59.896Z,20.23
2018-11-02T01:17:31.491Z,20.24
2018-11-02T01:18:03.104Z,20.24
2018-11-02T01:18:34.724Z,20.25
2018-11-02T01:19:06.340Z,20.25
2018-11-02T01:19:37.952Z,20.25
2018-11-02T01:20:09.552Z,20.24
2018-11-02T01:20:41.148Z,20.22
2018-11-02T01:21:12.755Z,20.21
2018-11-02T01:21:44.334Z,20.20
2018-11-02T01:22:15.940Z,20.20
2018-11-02T01:22:47.549Z,20.19
2018-11-02T01:23:19.144Z,20.18
2018-11-02T01:23:50.769Z,20.18
2018-11-02T01:24:22.374Z,20.18
2018-11-02T01:24:53.977Z,20.17
2018-11-02T01:25:25.571Z,20.16
2018-11-02T01:25:57.164Z,20.16
2018-11-02T01:26:28.755Z,20.15
2018-11-02T01:27:00.352Z,20.16
2018-11-02T01:27:31.958Z,20.19
2018-11-02T01:28:03.610Z,20.20
2018-11-02T01:28:35.217Z,20.21
2018-11-02T01:29:06.870Z,20.21
2018-11-02T01:29:38.453Z,20.21
2018-11-02T01:30:10.047Z,20.22
2018-11-02T01:30:41.648Z,20.21
2018-11-02T01:31:13.253Z,20.21
2018-11-02T01:31:44.865Z,20.20
2018-11-02T01:32:16.490Z,20.19
2018-11-02T01:32:48.095Z,20.19
2018-11-02T01:33:20.306Z,20.17
2018-11-02T01:33:51.918Z,20.18
2018-11-02T01:34:23.554Z,20.16
2018-11-02T01:34:55.160Z,20.16
2018-11-02T01:35:26.761Z,20.15
2018-11-02T01:35:58.357Z,20.13
2018-11-02T01:36:29.960Z,20.13
2018-11-02T01:37:01.558Z,20.13
2018-11-02T01:37:33.160Z,20.12
2018-11-02T01:38:04.785Z,20.11
2018-11-02T01:38:36.384Z,20.11
2018-11-02T01:39:08.134Z,20.01
2018-11-02T01:39:39.728Z,20.09
2018-11-02T01:40:11.348Z,20.09
2018-11-02T01:40:42.960Z,20.07
2018-11-02T01:41:14.569Z,20.07
2018-11-02T01:41:46.161Z,20.07
2018-11-02T01:42:17.754Z,20.07
2018-11-02T01:42:49.347Z,20.06
2018-11-02T01:43:20.952Z,20.07
2018-11-02T01:43:52.547Z,20.06
2018-11-02T01:44:24.163Z,20.06
2018-11-02T01:44:55.751Z,20.07
2018-11-02T01:45:27.342Z,20.07
2018-11-02T01:45:58.940Z,20.07
2018-11-02T01:46:30.549Z,20.07
2018-11-02T01:47:02.153Z,20.07
2018-11-02T01:47:33.748Z,20.07
2018-11-02T01:48:05.349Z,20.07
2018-11-02T01:48:36.935Z,20.08
2018-11-02T01:49:08.552Z,20.09
2018-11-02T01:49:40.168Z,20.11
2018-11-02T01:50:11.804Z,20.14
2018-11-02T01:50:43.412Z,20.16
2018-11-02T01:51:15.003Z,20.18
2018-11-02T01:51:46.595Z,20.20
2018-11-02T01:52:18.202Z,20.18
2018-11-02T01:52:49.801Z,20.23
2018-11-02T01:53:21.392Z,20.29
2018-11-02T01:53:52.994Z,20.32
2018-11-02T01:54:24.631Z,20.34
2018-11-02T01:54:56.233Z,20.36
2018-11-02T01:55:27.824Z,20.38
2018-11-02T01:55:59.419Z,20.41
2018-11-02T01:56:31.007Z,20.43
2018-11-02T01:57:02.619Z,20.45
2018-11-02T01:57:34.216Z,20.26
2018-11-02T01:58:05.811Z,20.47
2018-11-02T01:58:37.414Z,20.49
2018-11-02T01:59:09.020Z,20.53
2018-11-02T01:59:40.642Z,20.54
2018-11-02T02:00:12.236Z,20.56
2018-11-02T02:00:43.849Z,20.17
2018-11-02T02:01:15.459Z,20.56
2018-11-02T02:01:47.074Z,20.57
2018-11-02T02:02:18.677Z,20.58
2018-11-02T02:02:50.280Z,20.58
2018-11-02T02:03:21.880Z,20.58
2018-11-02T02:03:53.477Z,20.58
2018-11-02T02:04:25.099Z,20.58
2018-11-02T02:04:56.692Z,20.59
2018-11-02T02:05:28.314Z,20.48
2018-11-02T02:05:59.918Z,20.60
2018-11-02T02:06:31.512Z,20.61
2018-11-02T02:07:03.109Z,20.61
2018-11-02T02:07:34.694Z,20.61
2018-11-02T02:08:06.294Z,20.62
2018-11-02T02:08:37.884Z,20.61
2018-11-02T02:09:09.480Z,20.61
2018-11-02T02:09:41.094Z,20.61
2018-11-02T02:10:12.678Z,20.62
2018-11-02T02:10:44.271Z,20.62
2018-11-02T02:11:15.898Z,20.51
2018-11-02T02:11:47.496Z,20.62
2018-11-02T02:12:19.127Z,20.63
2018-11-02T02:12:50.742Z,20.63
2018-11-02T02:13:22.526Z,20.63
2018-11-02T02:13:53.972Z,19.78
2018-11-02T02:14:25.602Z,20.60
2018-11-02T02:14:57.218Z,20.63
2018-11-02T02:15:28.824Z,20.63
2018-11-02T02:16:00.429Z,20.62
2018-11-02T02:16:32.018Z,20.62
2018-11-02T02:17:03.617Z,20.62
2018-11-02T02:17:35.246Z,20.61
2018-11-02T02:18:06.877Z,20.61
2018-11-02T02:18:38.461Z,20.60
2018-11-02T02:19:10.060Z,20.59
2018-11-02T02:19:41.669Z,20.58
2018-11-02T02:20:13.267Z,20.58
2018-11-02T02:20:44.859Z,20.57
2018-11-02T02:21:16.456Z,20.55
2018-11-02T02:21:48.057Z,20.55
2018-11-02T02:22:19.676Z,20.54
2018-11-02T02:22:51.277Z,20.55
2018-11-02T02:23:22.898Z,20.55
2018-11-02T02:23:54.482Z,20.55
2018-11-02T02:24:26.104Z,20.35
2018-11-02T02:24:57.709Z,20.53
2018-11-02T02:25:29.318Z,20.53
2018-11-02T02:26:00.912Z,20.51
2018-11-02T02:26:32.499Z,20.51
2018-11-02T02:27:04.096Z,20.50
2018-11-02T02:27:35.710Z,20.48
2018-11-02T02:28:07.411Z,20.48
2018-11-02T02:28:38.998Z,20.47
2018-11-02T02:29:10.578Z,20.46
2018-11-02T02:29:42.196Z,20.46
2018-11-02T02:30:13.798Z,20.45
2018-11-02T02:30:45.405Z,20.44
2018-11-02T02:31:17.005Z,20.43
2018-11-02T02:31:48.600Z,20.43
2018-11-02T02:32:20.194Z,20.42
2018-11-02T02:32:51.801Z,20.42
2018-11-02T02:33:23.723Z,20.42
2018-11-02T02:33:55.328Z,20.42
2018-11-02T02:34:26.968Z,20.40
2018-11-02T02:34:58.574Z,20.42
2018-11-02T02:35:30.169Z,20.43
2018-11-02T02:36:01.797Z,20.41
2018-11-02T02:36:33.434Z,20.38
2018-11-02T02:37:05.052Z,20.41
2018-11-02T02:37:36.628Z,20.41
2018-11-02T02:38:08.231Z,20.42
2018-11-02T02:38:39.823Z,20.41
2018-11-02T02:39:11.423Z,20.41
2018-11-02T02:39:43.038Z,20.41
2018-11-02T02:40:14.666Z,20.40
2018-11-02T02:40:46.267Z,20.39
2018-11-02T02:41:17.957Z,20.38
2018-11-02T02:41:49.541Z,20.38
2018-11-02T02:42:21.128Z,20.36
2018-11-02T02:42:52.717Z,20.36
2018-11-02T02:43:24.313Z,20.35
2018-11-02T02:43:55.901Z,20.34
2018-11-02T02:44:27.544Z,20.33
2018-11-02T02:44:59.159Z,20.32
2018-11-02T02:45:30.756Z,20.30
2018-11-02T02:46:02.369Z,20.29
2018-11-02T02:46:33.953Z,20.29
2018-11-02T02:47:05.566Z,20.28
2018-11-02T02:47:37.179Z,20.28
2018-11-02T02:48:08.784Z,20.28
2018-11-02T02:48:40.374Z,20.27
2018-11-02T02:49:11.976Z,20.27
2018-11-02T02:49:43.618Z,20.26
2018-11-02T02:50:15.216Z,20.25
2018-11-02T02:50:46.829Z,20.24
2018-11-02T02:51:18.418Z,20.24
2018-11-02T02:51:50.025Z,20.24
2018-11-02T02:52:21.646Z,20.24
2018-11-02T02:52:53.270Z,20.24
2018-11-02T02:53:24.873Z,20.24
2018-11-02T02:53:56.450Z,20.23
2018-11-02T02:54:28.065Z,20.22
2018-11-02T02:54:59.706Z,20.21
2018-11-02T02:55:31.347Z,20.21
2018-11-02T02:56:02.944Z,20.21
2018-11-02T02:56:34.570Z,20.22
2018-11-02T02:57:06.175Z,20.23
2018-11-02T02:57:37.768Z,20.25
2018-11-02T02:58:09.371Z,20.25
2018-11-02T02:58:40.973Z,20.25
2018-11-02T02:59:12.588Z,20.16
2018-11-02T02:59:44.239Z,20.25
2018-11-02T03:00:15.838Z,20.25
2018-11-02T03:00:47.443Z,20.24
2018-11-02T03:01:19.054Z,20.24
2018-11-02T03:01:50.651Z,20.24
2018-11-02T03:02:22.243Z,20.25
2018-11-02T03:02:53.825Z,20.25
2018-11-02T03:03:25.426Z,20.25
2018-11-02T03:03:57.033Z,20.25
2018-11-02T03:04:28.650Z,20.25
2018-11-02T03:05:00.294Z,20.22
2018-11-02T03:05:31.919Z,20.23
2018-11-02T03:06:03.534Z,20.22
2018-11-02T03:06:35.140Z,20.21
2018-11-02T03:07:06.732Z,20.22
2018-11-02T03:07:38.326Z,20.22
2018-11-02T03:08:09.945Z,20.24
2018-11-02T03:08:41.544Z,20.26
2018-11-02T03:09:13.150Z,20.26
2018-11-02T03:09:44.799Z,20.25
2018-11-02T03:10:16.425Z,20.25
2018-11-02T03:10:48.158Z,20.24
2018-11-02T03:11:19.984Z,20.23
2018-11-02T03:11:51.637Z,20.22
2018-11-02T03:12:23.242Z,20.22
2018-11-02T03:12:54.841Z,20.20
2018-11-02T03:13:26.431Z,20.21
2018-11-02T03:13:58.037Z,20.21
2018-11-02T03:14:29.635Z,20.20
2018-11-02T03:15:01.260Z,20.19
2018-11-02T03:15:32.894Z,20.18
2018-11-02T03:16:04.516Z,20.18
2018-11-02T03:16:36.133Z,20.17
2018-11-02T03:17:08.182Z,20.17
2018-11-02T03:17:39.908Z,20.15
2018-11-02T03:18:11.538Z,20.15
2018-11-02T03:18:43.272Z,20.14
2018-11-02T03:19:14.738Z,20.16
2018-11-02T03:19:46.332Z,20.16
2018-11-02T03:20:18.011Z,20.15
2018-11-02T03:20:49.600Z,20.15
2018-11-02T03:21:21.191Z,20.14
2018-11-02T03:21:52.809Z,20.14
2018-11-02T03:22:24.438Z,20.14
2018-11-02T03:22:56.005Z,20.14
2018-11-02T03:23:27.603Z,20.13
2018-11-02T03:23:59.200Z,20.14
2018-11-02T03:24:30.791Z,20.13
2018-11-02T03:25:02.409Z,20.13
2018-11-02T03:25:34.013Z,20.12
2018-11-02T03:26:05.602Z,20.12
2018-11-02T03:26:37.230Z,20.12
2018-11-02T03:27:08.838Z,20.13
2018-11-02T03:27:40.431Z,20.12
2018-11-02T03:28:12.046Z,20.10
2018-11-02T03:28:43.645Z,20.11
2018-11-02T03:29:15.252Z,20.11
2018-11-02T03:29:46.869Z,20.11
2018-11-02T03:30:18.528Z,20.09
2018-11-02T03:30:50.146Z,20.10
2018-11-02T03:31:21.754Z,20.11
2018-11-02T03:31:53.363Z,20.11
2018-11-02T03:32:25.031Z,20.11
2018-11-02T03:32:56.706Z,19.98
2018-11-02T03:33:28.330Z,20.11
2018-11-02T03:33:59.947Z,20.10
2018-11-02T03:34:31.538Z,20.10
2018-11-02T03:35:03.162Z,20.09
2018-11-02T03:35:34.789Z,20.09
2018-11-02T03:36:06.408Z,20.09
2018-11-02T03:36:38.043Z,20.09
2018-11-02T03:37:09.655Z,20.09
2018-11-02T03:37:41.269Z,20.10
2018-11-02T03:38:12.867Z,20.10
2018-11-02T03:38:44.446Z,20.10
2018-11-02T03:39:16.045Z,20.10
2018-11-02T03:39:47.627Z,20.10
2018-11-02T03:40:19.267Z,20.10
2018-11-02T03:40:50.885Z,20.11
2018-11-02T03:41:22.510Z,20.12
2018-11-02T03:41:54.096Z,20.12
2018-11-02T03:42:25.693Z,20.13
2018-11-02T03:42:57.302Z,20.14
2018-11-02T03:43:28.918Z,20.15
2018-11-02T03:44:00.506Z,20.16
2018-11-02T03:44:32.107Z,20.16
2018-11-02T03:45:03.718Z,20.17
2018-11-02T03:45:35.325Z,20.20
2018-11-02T03:46:06.916Z,20.22
2018-11-02T03:46:38.528Z,20.24
2018-11-02T03:47:10.134Z,20.24
2018-11-02T03:47:41.747Z,20.29
2018-11-02T03:48:13.357Z,20.30
2018-11-02T03:48:44.960Z,20.31
2018-11-02T03:49:16.574Z,20.31
2018-11-02T03:49:48.268Z,20.35
2018-11-02T03:50:19.893Z,20.38
2018-11-02T03:50:51.530Z,20.40
2018-11-02T03:51:23.109Z,20.43
2018-11-02T03:51:54.713Z,20.46
2018-11-02T03:52:26.308Z,20.49
2018-11-02T03:52:57.907Z,20.51
2018-11-02T03:53:29.865Z,20.53
2018-11-02T03:54:01.897Z,20.54
2018-11-02T03:54:33.495Z,20.55
2018-11-02T03:55:05.155Z,20.56
2018-11-02T03:55:36.756Z,20.57
2018-11-02T03:56:08.352Z,20.59
2018-11-02T03:56:39.998Z,20.60
2018-11-02T03:57:11.560Z,20.60
2018-11-02T03:57:43.177Z,20.61
2018-11-02T03:58:14.787Z,20.62
2018-11-02T03:58:46.396Z,20.63
2018-11-02T03:59:17.995Z,20.63
2018-11-02T03:59:49.592Z,20.64
2018-11-02T04:00:21.237Z,20.65
2018-11-02T04:00:52.846Z,20.66
2018-11-02T04:01:24.467Z,20.66
2018-11-02T04:01:56.082Z,20.66
2018-11-02T04:02:27.680Z,20.66
2018-11-02T04:02:59.262Z,20.66
2018-11-02T04:03:30.857Z,20.67
2018-11-02T04:04:02.465Z,20.65
2018-11-02T04:04:34.074Z,20.67
2018-11-02T04:05:05.672Z,20.67
2018-11-02T04:05:37.309Z,20.68
2018-11-02T04:06:08.923Z,20.66
2018-11-02T04:06:40.524Z,20.65
2018-11-02T04:07:12.116Z,20.68
2018-11-02T04:07:43.736Z,20.66
2018-11-02T04:08:15.358Z,20.67
2018-11-02T04:08:46.969Z,20.66
2018-11-02T04:09:18.586Z,20.66
2018-11-02T04:09:50.181Z,20.66
2018-11-02T04:10:21.812Z,20.65
2018-11-02T04:10:53.390Z,20.65
2018-11-02T04:11:24.978Z,20.65
2018-11-02T04:11:56.565Z,20.65
2018-11-02T04:12:28.169Z,20.64
2018-11-02T04:12:59.750Z,20.63
2018-11-02T04:13:31.348Z,20.63
2018-11-02T04:14:02.970Z,20.64
2018-11-02T04:14:34.574Z,20.64
2018-11-02T04:15:06.182Z,20.63
2018-11-02T04:15:37.814Z,20.61
2018-11-02T04:16:09.394Z,20.61
2018-11-02T04:16:40.984Z,20.61
2018-11-02T04:17:12.588Z,20.61
2018-11-02T04:17:44.211Z,20.60
2018-11-02T04:18:15.811Z,20.62
2018-11-02T04:18:47.460Z,20.62
2018-11-02T04:19:19.050Z,20.59
2018-11-02T04:19:50.634Z,20.61
2018-11-02T04:20:22.267Z,20.62
2018-11-02T04:20:53.864Z,20.61
2018-11-02T04:21:25.473Z,20.59
2018-11-02T04:21:57.088Z,20.60
2018-11-02T04:22:28.688Z,20.61
2018-11-02T04:23:00.303Z,20.61
2018-11-02T04:23:31.917Z,20.60
2018-11-02T04:24:03.516Z,20.60
2018-11-02T04:24:35.120Z,20.59
2018-11-02T04:25:06.718Z,20.57
2018-11-02T04:25:38.327Z,20.57
2018-11-02T04:26:09.910Z,20.56
2018-11-02T04:26:41.511Z,20.55
2018-11-02T04:27:13.112Z,20.54
2018-11-02T04:27:44.698Z,20.53
2018-11-02T04:28:16.274Z,20.51
2018-11-02T04:28:47.904Z,20.50
2018-11-02T04:29:19.501Z,20.49
2018-11-02T04:29:51.120Z,20.48
2018-11-02T04:30:22.725Z,20.46
2018-11-02T04:30:54.420Z,20.46
2018-11-02T04:31:25.969Z,20.45
2018-11-02T04:31:57.561Z,20.44
2018-11-02T04:32:29.156Z,20.42
2018-11-02T04:33:00.747Z,20.31
2018-11-02T04:33:32.353Z,20.41
2018-11-02T04:34:03.956Z,20.40
2018-11-02T04:34:35.568Z,20.39
2018-11-02T04:35:07.167Z,20.39
2018-11-02T04:35:38.764Z,20.36
2018-11-02T04:36:10.389Z,20.36
2018-11-02T04:36:41.983Z,20.36
2018-11-02T04:37:13.579Z,20.35
2018-11-02T04:37:45.171Z,20.35
2018-11-02T04:38:16.783Z,20.34
2018-11-02T04:38:48.394Z,20.34
2018-11-02T04:39:19.976Z,20.33
2018-11-02T04:39:51.592Z,20.30
2018-11-02T04:40:23.210Z,20.32
2018-11-02T04:40:54.842Z,20.30
2018-11-02T04:41:26.466Z,20.29
2018-11-02T04:41:58.068Z,20.28
2018-11-02T04:42:29.669Z,20.29
2018-11-02T04:43:01.268Z,20.30
2018-11-02T04:43:32.868Z,20.29
2018-11-02T04:44:04.478Z,20.28
2018-11-02T04:44:36.071Z,20.27
2018-11-02T04:45:07.663Z,20.26
2018-11-02T04:45:39.247Z,20.25
2018-11-02T04:46:10.882Z,20.26
2018-11-02T04:46:42.526Z,20.28
2018-11-02T04:47:14.117Z,20.27
2018-11-02T04:47:45.712Z,20.27
2018-11-02T04:48:17.300Z,20.29
2018-11-02T04:48:48.905Z,20.29
2018-11-02T04:49:20.500Z,20.28
2018-11-02T04:49:52.088Z,20.27
2018-11-02T04:50:23.680Z,20.27
2018-11-02T04:50:55.496Z,20.27
2018-11-02T04:51:26.936Z,20.27
2018-11-02T04:51:58.518Z,20.25
2018-11-02T04:52:30.112Z,20.24
2018-11-02T04:53:01.726Z,20.22
2018-11-02T04:53:33.349Z,20.23
2018-11-02T04:54:04.948Z,20.22
2018-11-02T04:54:36.556Z,20.22
2018-11-02T04:55:08.152Z,20.21
2018-11-02T04:55:39.747Z,20.20
2018-11-02T04:56:11.397Z,20.20
2018-11-02T04:56:42.993Z,20.19
2018-11-02T04:57:14.574Z,20.18
2018-11-02T04:57:46.175Z,20.18
2018-11-02T04:58:17.788Z,20.18
2018-11-02T04:58:49.371Z,20.17
2018-11-02T04:59:20.985Z,20.17
2018-11-02T04:59:52.579Z,20.16
2018-11-02T05:00:24.185Z,20.16
2018-11-02T05:00:55.804Z,20.16
2018-11-02T05:01:27.410Z,20.16
2018-11-02T05:01:59.030Z,20.15
2018-11-02T05:02:30.661Z,20.16
2018-11-02T05:03:02.267Z,20.15
2018-11-02T05:03:33.877Z,20.14
2018-11-02T05:04:05.477Z,20.15
2018-11-02T05:04:37.082Z,20.15
2018-11-02T05:05:08.678Z,20.14
2018-11-02T05:05:40.276Z,20.15
2018-11-02T05:06:11.878Z,20.14
2018-11-02T05:06:43.518Z,20.14
2018-11-02T05:07:15.117Z,20.13
2018-11-02T05:07:46.715Z,20.12
2018-11-02T05:08:18.346Z,20.11
2018-11-02T05:08:49.968Z,20.11
2018-11-02T05:09:21.563Z,20.11
2018-11-02T05:09:53.232Z,20.10
2018-11-02T05:10:24.809Z,20.09
2018-11-02T05:10:56.390Z,20.10
2018-11-02T05:11:28.095Z,20.10
2018-11-02T05:11:59.655Z,20.07
2018-11-02T05:12:31.262Z,20.11
2018-11-02T05:13:02.861Z,20.13
2018-11-02T05:13:34.455Z,20.14
2018-11-02T05:14:06.054Z,20.14
2018-11-02T05:14:37.651Z,20.14
2018-11-02T05:15:09.234Z,20.15
2018-11-02T05:15:40.838Z,20.14
2018-11-02T05:16:12.427Z,20.14
2018-11-02T05:16:44.070Z,20.14
2018-11-02T05:17:15.654Z,20.13
2018-11-02T05:17:47.248Z,20.13
2018-11-02T05:18:18.853Z,20.13
2018-11-02T05:18:50.439Z,20.13
2018-11-02T05:19:22.022Z,20.13
2018-11-02T05:19:53.626Z,20.13
2018-11-02T05:20:25.225Z,20.12
2018-11-02T05:20:56.871Z,20.12
2018-11-02T05:21:28.490Z,20.12
2018-11-02T05:22:00.068Z,20.13
2018-11-02T05:22:31.647Z,20.14
2018-11-02T05:23:03.282Z,20.14
2018-11-02T05:23:34.875Z,20.15
2018-11-02T05:24:06.481Z,20.14
2018-11-02T05:24:38.072Z,20.16
2018-11-02T05:25:09.650Z,20.19
2018-11-02T05:25:41.237Z,20.23
2018-11-02T05:26:12.866Z,20.21
2018-11-02T05:26:44.492Z,20.19
2018-11-02T05:27:16.098Z,20.13
2018-11-02T05:27:47.711Z,20.11
2018-11-02T05:28:19.307Z,20.08
2018-11-02T05:28:50.914Z,20.07
2018-11-02T05:29:22.526Z,20.08
2018-11-02T05:29:54.123Z,20.07
2018-11-02T05:30:25.738Z,20.07
2018-11-02T05:30:57.342Z,20.07
2018-11-02T05:31:28.959Z,20.06
2018-11-02T05:32:00.584Z,20.04
2018-11-02T05:32:32.195Z,20.04
2018-11-02T05:33:03.816Z,20.03
2018-11-02T05:33:35.496Z,20.02
2018-11-02T05:34:07.180Z,20.01
2018-11-02T05:34:38.881Z,20.00
2018-11-02T05:35:10.493Z,20.00
2018-11-02T05:35:42.101Z,19.99
2018-11-02T05:36:13.742Z,19.99
2018-11-02T05:36:45.436Z,20.01
2018-11-02T05:37:17.151Z,20.02
2018-11-02T05:37:48.804Z,20.02
2018-11-02T05:38:20.410Z,20.04
2018-11-02T05:38:52.017Z,20.06
2018-11-02T05:39:23.712Z,20.08
2018-11-02T05:39:55.249Z,20.09
2018-11-02T05:40:26.839Z,20.11
2018-11-02T05:40:58.437Z,20.12
2018-11-02T05:41:30.046Z,20.13
2018-11-02T05:42:01.673Z,20.12
2018-11-02T05:42:33.267Z,20.14
2018-11-02T05:43:04.863Z,20.15
2018-11-02T05:43:36.540Z,20.16
2018-11-02T05:44:08.167Z,20.19
2018-11-02T05:44:39.760Z,20.21
2018-11-02T05:45:11.352Z,20.24
2018-11-02T05:45:42.938Z,20.26
2018-11-02T05:46:14.543Z,20.28
2018-11-02T05:46:46.164Z,20.29
2018-11-02T05:47:17.770Z,20.32
2018-11-02T05:47:49.398Z,20.32
2018-11-02T05:48:20.991Z,20.37
2018-11-02T05:48:52.576Z,20.40
2018-11-02T05:49:24.167Z,20.43
2018-11-02T05:49:55.795Z,20.43
2018-11-02T05:50:27.367Z,20.43
2018-11-02T05:50:58.961Z,20.44
2018-11-02T05:51:30.564Z,20.44
2018-11-02T05:52:02.188Z,20.46
2018-11-02T05:52:33.802Z,20.47
2018-11-02T05:53:05.418Z,20.47
2018-11-02T05:53:37.020Z,20.48
2018-11-02T05:54:08.711Z,20.49
2018-11-02T05:54:40.296Z,20.52
2018-11-02T05:55:11.925Z,20.53
2018-11-02T05:55:43.541Z,20.55
2018-11-02T05:56:15.146Z,20.56
2018-11-02T05:56:46.778Z,20.56
2018-11-02T05:57:18.372Z,20.57
2018-11-02T05:57:49.969Z,20.58
2018-11-02T05:58:21.572Z,20.59
2018-11-02T05:58:53.177Z,20.60
2018-11-02T05:59:24.763Z,20.61
2018-11-02T05:59:56.370Z,20.62
2018-11-02T06:00:27.979Z,20.62
2018-11-02T06:00:59.572Z,20.62
2018-11-02T06:01:31.322Z,20.62
2018-11-02T06:02:02.812Z,20.62
2018-11-02T06:02:34.442Z,20.63
2018-11-02T06:03:06.050Z,20.63
2018-11-02T06:03:37.662Z,20.64
2018-11-02T06:04:09.274Z,20.64
2018-11-02T06:04:40.885Z,20.64
2018-11-02T06:05:12.508Z,20.64
2018-11-02T06:05:44.113Z,20.64
2018-11-02T06:06:15.734Z,20.64
2018-11-02T06:06:47.345Z,20.63
2018-11-02T06:07:18.939Z,20.61
2018-11-02T06:07:50.603Z,20.61
2018-11-02T06:08:22.144Z,20.51
2018-11-02T06:08:53.730Z,20.61
2018-11-02T06:09:25.334Z,20.61
2018-11-02T06:09:56.946Z,20.60
2018-11-02T06:10:28.541Z,20.61
2018-11-02T06:11:00.162Z,20.60
2018-11-02T06:11:31.760Z,20.60
2018-11-02T06:12:03.369Z,20.60
2018-11-02T06:12:34.964Z,20.59
2018-11-02T06:13:06.576Z,20.58
2018-11-02T06:13:38.182Z,20.58
2018-11-02T06:14:09.798Z,20.57
2018-11-02T06:14:41.764Z,20.56
2018-11-02T06:15:13.404Z,20.55
2018-11-02T06:15:45.005Z,20.55
2018-11-02T06:16:16.621Z,20.54
2018-11-02T06:16:48.288Z,20.52
2018-11-02T06:17:19.881Z,20.51
2018-11-02T06:17:51.468Z,20.50
2018-11-02T06:18:23.083Z,20.49
2018-11-02T06:18:54.675Z,20.48
2018-11-02T06:19:26.291Z,20.47
2018-11-02T06:19:57.905Z,20.46
2018-11-02T06:20:29.567Z,20.46
2018-11-02T06:21:01.137Z,20.44
2018-11-02T06:21:32.753Z,20.44
2018-11-02T06:22:04.372Z,20.42
2018-11-02T06:22:35.996Z,20.41
2018-11-02T06:23:07.582Z,20.41
2018-11-02T06:23:39.194Z,20.40
2018-11-02T06:24:10.841Z,20.40
2018-11-02T06:24:42.408Z,20.40
2018-11-02T06:25:14.012Z,20.39
2018-11-02T06:25:45.637Z,20.39
2018-11-02T06:26:17.255Z,20.39
2018-11-02T06:26:48.862Z,20.37
2018-11-02T06:27:20.508Z,20.36
2018-11-02T06:27:52.117Z,20.36
2018-11-02T06:28:23.723Z,20.35
2018-11-02T06:28:55.334Z,20.34
2018-11-02T06:29:26.928Z,20.34
2018-11-02T06:29:58.534Z,20.34
2018-11-02T06:30:30.215Z,20.33
2018-11-02T06:31:01.784Z,20.32
2018-11-02T06:31:33.632Z,20.32
2018-11-02T06:32:05.358Z,20.32
2018-11-02T06:32:36.998Z,20.30
2018-11-02T06:33:08.575Z,20.30
2018-11-02T06:33:40.522Z,20.30
2018-11-02T06:34:12.128Z,20.30
2018-11-02T06:34:43.720Z,20.29
2018-11-02T06:35:15.315Z,20.29
2018-11-02T06:35:46.914Z,20.28
2018-11-02T06:36:18.494Z,20.28
2018-11-02T06:36:50.104Z,20.27
2018-11-02T06:37:21.743Z,20.26
2018-11-02T06:37:53.340Z,20.25
2018-11-02T06:38:24.960Z,20.25
2018-11-02T06:38:56.611Z,20.26
2018-11-02T06:39:28.174Z,20.26
2018-11-02T06:39:59.806Z,20.26
2018-11-02T06:40:31.389Z,20.25
2018-11-02T06:41:02.994Z,20.24
2018-11-02T06:41:34.597Z,20.25
2018-11-02T06:42:06.219Z,20.23
2018-11-02T06:42:37.807Z,20.21
2018-11-02T06:43:09.418Z,20.22
2018-11-02T06:43:41.017Z,20.21
2018-11-02T06:44:12.639Z,20.20
2018-11-02T06:44:44.248Z,20.19
2018-11-02T06:45:15.839Z,20.19
2018-11-02T06:45:47.441Z,20.19
2018-11-02T06:46:19.043Z,20.20
2018-11-02T06:46:50.653Z,20.20